Grande Portogallo — IBZW — position and weather

sailwx.info

Track history (hours):
 
Tides and Currents Weather Stations Pressure Air Temp Water Temp Dewpoint Dewpoint Depression Visibility Wind Speed Wind Dir Waves Ship Positions

Grande Portogallo

Last reported at 2016-Dec-07 04:24 UTC. Time now 2016-Dec-08 14:22 UTC.
Position N 38°01' E 024°40'.

Length 176 m; draft 7.6 m.

Type: Cargo ship. MMSI: 247065500.

Date/timePositionNaut miles runAvg speedWind from/ knotsBaromVisibWave heightAir tempDewpointWater temp
2016-Dec-07 04:24N 38°01' E 024°40'1518.3
2016-Dec-07 03:33N 37°47' E 024°32'2117.8
2016-Dec-07 02:23N 37°29' E 024°19'1618.5
2016-Dec-07 01:33N 37°17' E 024°07'38316.6
2016-Dec-06 02:34N 37°45' E 016°06'1817.8
2016-Dec-06 01:33N 37°48' E 015°43'1414.3
2016-Dec-06 00:34N 37°59' E 015°33'1717.2
2016-Dec-05 23:33N 38°15' E 015°39'1717.4
2016-Dec-05 22:33N 38°32' E 015°34'1818.2
2016-Dec-05 21:33N 38°49' E 015°25'31217.3
2016-Dec-05 03:29N 42°27' E 010°31'2017.7
2016-Dec-05 02:22N 42°39' E 010°09'3016.6
2016-Dec-05 00:33N 43°09' E 010°07'1818.4
2016-Dec-04 23:34N 43°27' E 010°11'9 9.4
2016-Dec-04 22:33N 43°35' E 010°19'0 0.0
2016-Dec-04 21:33N 43°35' E 010°19'0 0.0
2016-Dec-04 20:33N 43°35' E 010°19'0 0.0
2016-Dec-04 19:33N 43°35' E 010°19'0 0.0
2016-Dec-04 18:33N 43°35' E 010°19'0 0.0
2016-Dec-04 17:33N 43°35' E 010°19'0 0.0
2016-Dec-04 16:33N 43°35' E 010°19'0 0.0
2016-Dec-04 15:33N 43°35' E 010°19'0 0.0
2016-Dec-04 14:33N 43°35' E 010°19'0 0.0
2016-Dec-04 13:33N 43°35' E 010°19'0 0.0
2016-Dec-04 12:33N 43°35' E 010°19'0 0.0
2016-Dec-04 11:33N 43°35' E 010°19'0 0.0
2016-Dec-04 10:33N 43°35' E 010°19'0 0.0
2016-Dec-04 09:33N 43°35' E 010°19'0 0.0
2016-Dec-04 08:33N 43°35' E 010°19'0 0.0
2016-Dec-04 07:33N 43°35' E 010°19'0 0.0
2016-Dec-04 06:33N 43°35' E 010°19'0 0.0
2016-Dec-04 05:33N 43°35' E 010°19'0 0.0
2016-Dec-04 04:33N 43°35' E 010°19'0 0.0
2016-Dec-04 03:33N 43°35' E 010°19'0 0.0
2016-Dec-04 02:33N 43°35' E 010°19'0 0.0
2016-Dec-04 01:33N 43°35' E 010°19'0 0.0
2016-Dec-04 00:33N 43°35' E 010°19'0 0.0
2016-Dec-03 23:33N 43°35' E 010°19'0 0.0
2016-Dec-03 22:33N 43°35' E 010°19'1 0.8
2016-Dec-03 21:33N 43°34' E 010°18'5 5.0
2016-Dec-03 20:33N 43°30' E 010°14'8 8.2
2016-Dec-03 19:33N 43°24' E 010°07'1717.0
2016-Dec-03 18:33N 43°15' E 009°47'1817.6
2016-Dec-03 17:33N 43°09' E 009°24'30017.7
2016-Dec-03 00:32N 40°49' E 003°26'1817.8
2016-Dec-02 23:33N 40°41' E 003°06'1818.2
2016-Dec-02 22:33N 40°33' E 002°44'1818.4
2016-Dec-02 21:33N 40°25' E 002°23'1818.1
2016-Dec-02 20:33N 40°16' E 002°02'1817.9
2016-Dec-02 19:33N 40°08' E 001°41'1817.7
2016-Dec-02 18:31N 39°59' E 001°20'7717.5
2016-Dec-02 14:07N 39°28' W 000°12'5 9.8
2016-Dec-02 13:34N 39°26' W 000°18'0 0.1
2016-Dec-02 12:33N 39°27' W 000°18'0 0.0
2016-Dec-02 11:30N 39°27' W 000°18'0 0.0
2016-Dec-02 10:33N 39°27' W 000°18'0 0.0
2016-Dec-02 09:33N 39°27' W 000°18'0 0.0
2016-Dec-02 08:33N 39°27' W 000°18'0 0.0
2016-Dec-02 07:33N 39°27' W 000°18'0 0.0
2016-Dec-02 06:33N 39°27' W 000°18'0 0.0
2016-Dec-02 05:33N 39°27' W 000°18'0 0.0
2016-Dec-02 04:33N 39°27' W 000°18'0 0.0
2016-Dec-02 03:33N 39°27' W 000°18'0 0.0
2016-Dec-02 02:33N 39°27' W 000°18'0 0.0
2016-Dec-02 01:33N 39°27' W 000°18'0 0.0
2016-Dec-02 00:33N 39°27' W 000°18'0 0.0
2016-Dec-01 23:33N 39°27' W 000°18'0 0.0
2016-Dec-01 22:33N 39°27' W 000°18'0 0.0
2016-Dec-01 21:33N 39°27' W 000°18'0 0.0
2016-Dec-01 20:33N 39°27' W 000°18'0 0.1
2016-Dec-01 19:33N 39°26' W 000°18'10713.4
2016-Dec-01 11:33N 37°40' W 000°26'1615.9
2016-Dec-01 10:33N 37°28' W 000°39'1716.6
2016-Dec-01 09:31N 37°16' W 000°55'10214.7
2016-Dec-01 02:32N 36°18' W 002°41'12513.3
2016-Nov-30 17:08N 36°01' W 005°14'712.7
2016-Nov-30 16:33N 35°59' W 005°23'21711.4
2016-Nov-29 21:32N 37°35' W 009°26'1515.3
2016-Nov-29 20:33N 37°49' W 009°18'1515.4
2016-Nov-29 19:33N 38°03' W 009°11'1615.5
2016-Nov-29 18:33N 38°17' W 009°04'1514.8
2016-Nov-29 17:33N 38°30' W 008°55'2 2.2
2016-Nov-29 16:31N 38°31' W 008°52'0 0.0
2016-Nov-29 15:31N 38°31' W 008°52'0 0.0
2016-Nov-29 14:31N 38°31' W 008°52'0 0.0
2016-Nov-29 13:31N 38°31' W 008°52'0 0.0
2016-Nov-29 12:31N 38°31' W 008°52'0 0.0
2016-Nov-29 11:31N 38°31' W 008°52'0 0.0
2016-Nov-29 10:31N 38°31' W 008°52'0 0.0
2016-Nov-29 09:31N 38°31' W 008°52'0 0.0
2016-Nov-29 08:04N 38°31' W 008°52'0 0.0
2016-Nov-29 07:31N 38°31' W 008°52'0 0.0
2016-Nov-29 06:31N 38°31' W 008°52'0 0.0
2016-Nov-29 05:31N 38°31' W 008°52'0 0.0
2016-Nov-29 04:31N 38°31' W 008°52'0 0.0
2016-Nov-29 03:31N 38°31' W 008°52'0 0.0
2016-Nov-29 02:31N 38°31' W 008°52'6 6.3
2016-Nov-29 01:33N 38°27' W 008°58'1313.3
2016-Nov-29 00:33N 38°21' W 009°13'1717.0
2016-Nov-28 23:33N 38°25' W 009°34'1817.7
2016-Nov-28 22:33N 38°31' W 009°56'1616.2
2016-Nov-28 21:33N 38°44' W 010°07'1817.6
2016-Nov-28 20:33N 39°02' W 010°08'1817.7
2016-Nov-28 19:33N 39°20' W 010°07'67017.5
2016-Nov-27 05:16N 50°07' W 006°02'1317.9
2016-Nov-27 04:33N 50°19' W 006°01'  
Track history (hours):
 
Tides and Currents Weather Stations Pressure Air Temp Water Temp Dewpoint Dewpoint Depression Visibility Wind Speed Wind Dir Waves Ship Positions

Grande Portogallo

Last reported at 2016-Dec-07 04:24 UTC. Time now 2016-Dec-08 14:22 UTC.
Position N 38°01' E 024°40'.

Length 176 m; draft 7.6 m.

Type: Cargo ship. MMSI: 247065500.

Date/timePositionNaut miles runAvg speedWind from/ knotsBaromVisibWave heightAir tempDewpointWater temp
2016-Dec-07 04:24N 38°01' E 024°40'1518.3
2016-Dec-07 03:33N 37°47' E 024°32'2117.8
2016-Dec-07 02:23N 37°29' E 024°19'1618.5
2016-Dec-07 01:33N 37°17' E 024°07'38316.6
2016-Dec-06 02:34N 37°45' E 016°06'1817.8
2016-Dec-06 01:33N 37°48' E 015°43'1414.3
2016-Dec-06 00:34N 37°59' E 015°33'1717.2
2016-Dec-05 23:33N 38°15' E 015°39'1717.4
2016-Dec-05 22:33N 38°32' E 015°34'1818.2
2016-Dec-05 21:33N 38°49' E 015°25'31217.3
2016-Dec-05 03:29N 42°27' E 010°31'2017.7
2016-Dec-05 02:22N 42°39' E 010°09'3016.6
2016-Dec-05 00:33N 43°09' E 010°07'1818.4
2016-Dec-04 23:34N 43°27' E 010°11'9 9.4
2016-Dec-04 22:33N 43°35' E 010°19'0 0.0
2016-Dec-04 21:33N 43°35' E 010°19'0 0.0
2016-Dec-04 20:33N 43°35' E 010°19'0 0.0
2016-Dec-04 19:33N 43°35' E 010°19'0 0.0
2016-Dec-04 18:33N 43°35' E 010°19'0 0.0
2016-Dec-04 17:33N 43°35' E 010°19'0 0.0
2016-Dec-04 16:33N 43°35' E 010°19'0 0.0
2016-Dec-04 15:33N 43°35' E 010°19'0 0.0
2016-Dec-04 14:33N 43°35' E 010°19'0 0.0
2016-Dec-04 13:33N 43°35' E 010°19'0 0.0
2016-Dec-04 12:33N 43°35' E 010°19'0 0.0
2016-Dec-04 11:33N 43°35' E 010°19'0 0.0
2016-Dec-04 10:33N 43°35' E 010°19'0 0.0
2016-Dec-04 09:33N 43°35' E 010°19'0 0.0
2016-Dec-04 08:33N 43°35' E 010°19'0 0.0
2016-Dec-04 07:33N 43°35' E 010°19'0 0.0
2016-Dec-04 06:33N 43°35' E 010°19'0 0.0
2016-Dec-04 05:33N 43°35' E 010°19'0 0.0
2016-Dec-04 04:33N 43°35' E 010°19'0 0.0
2016-Dec-04 03:33N 43°35' E 010°19'0 0.0
2016-Dec-04 02:33N 43°35' E 010°19'0 0.0
2016-Dec-04 01:33N 43°35' E 010°19'0 0.0
2016-Dec-04 00:33N 43°35' E 010°19'0 0.0
2016-Dec-03 23:33N 43°35' E 010°19'0 0.0
2016-Dec-03 22:33N 43°35' E 010°19'1 0.8
2016-Dec-03 21:33N 43°34' E 010°18'5 5.0
2016-Dec-03 20:33N 43°30' E 010°14'8 8.2
2016-Dec-03 19:33N 43°24' E 010°07'1717.0
2016-Dec-03 18:33N 43°15' E 009°47'1817.6
2016-Dec-03 17:33N 43°09' E 009°24'30017.7
2016-Dec-03 00:32N 40°49' E 003°26'1817.8
2016-Dec-02 23:33N 40°41' E 003°06'1818.2
2016-Dec-02 22:33N 40°33' E 002°44'1818.4
2016-Dec-02 21:33N 40°25' E 002°23'1818.1
2016-Dec-02 20:33N 40°16' E 002°02'1817.9
2016-Dec-02 19:33N 40°08' E 001°41'1817.7
2016-Dec-02 18:31N 39°59' E 001°20'7717.5
2016-Dec-02 14:07N 39°28' W 000°12'5 9.8
2016-Dec-02 13:34N 39°26' W 000°18'0 0.1
2016-Dec-02 12:33N 39°27' W 000°18'0 0.0
2016-Dec-02 11:30N 39°27' W 000°18'0 0.0
2016-Dec-02 10:33N 39°27' W 000°18'0 0.0
2016-Dec-02 09:33N 39°27' W 000°18'0 0.0
2016-Dec-02 08:33N 39°27' W 000°18'0 0.0
2016-Dec-02 07:33N 39°27' W 000°18'0 0.0
2016-Dec-02 06:33N 39°27' W 000°18'0 0.0
2016-Dec-02 05:33N 39°27' W 000°18'0 0.0
2016-Dec-02 04:33N 39°27' W 000°18'0 0.0
2016-Dec-02 03:33N 39°27' W 000°18'0 0.0
2016-Dec-02 02:33N 39°27' W 000°18'0 0.0
2016-Dec-02 01:33N 39°27' W 000°18'0 0.0
2016-Dec-02 00:33N 39°27' W 000°18'0 0.0
2016-Dec-01 23:33N 39°27' W 000°18'0 0.0
2016-Dec-01 22:33N 39°27' W 000°18'0 0.0
2016-Dec-01 21:33N 39°27' W 000°18'0 0.0
2016-Dec-01 20:33N 39°27' W 000°18'0 0.1
2016-Dec-01 19:33N 39°26' W 000°18'10713.4
2016-Dec-01 11:33N 37°40' W 000°26'1615.9
2016-Dec-01 10:33N 37°28' W 000°39'1716.6
2016-Dec-01 09:31N 37°16' W 000°55'10214.7
2016-Dec-01 02:32N 36°18' W 002°41'12513.3
2016-Nov-30 17:08N 36°01' W 005°14'712.7
2016-Nov-30 16:33N 35°59' W 005°23'21711.4
2016-Nov-29 21:32N 37°35' W 009°26'1515.3
2016-Nov-29 20:33N 37°49' W 009°18'1515.4
2016-Nov-29 19:33N 38°03' W 009°11'1615.5
2016-Nov-29 18:33N 38°17' W 009°04'1514.8
2016-Nov-29 17:33N 38°30' W 008°55'2 2.2
2016-Nov-29 16:31N 38°31' W 008°52'0 0.0
2016-Nov-29 15:31N 38°31' W 008°52'0 0.0
2016-Nov-29 14:31N 38°31' W 008°52'0 0.0
2016-Nov-29 13:31N 38°31' W 008°52'0 0.0
2016-Nov-29 12:31N 38°31' W 008°52'0 0.0
2016-Nov-29 11:31N 38°31' W 008°52'0 0.0
2016-Nov-29 10:31N 38°31' W 008°52'0 0.0
2016-Nov-29 09:31N 38°31' W 008°52'0 0.0
2016-Nov-29 08:04N 38°31' W 008°52'0 0.0
2016-Nov-29 07:31N 38°31' W 008°52'0 0.0
2016-Nov-29 06:31N 38°31' W 008°52'0 0.0
2016-Nov-29 05:31N 38°31' W 008°52'0 0.0
2016-Nov-29 04:31N 38°31' W 008°52'0 0.0
2016-Nov-29 03:31N 38°31' W 008°52'0 0.0
2016-Nov-29 02:31N 38°31' W 008°52'6 6.3
2016-Nov-29 01:33N 38°27' W 008°58'1313.3
2016-Nov-29 00:33N 38°21' W 009°13'1717.0
2016-Nov-28 23:33N 38°25' W 009°34'1817.7
2016-Nov-28 22:33N 38°31' W 009°56'1616.2
2016-Nov-28 21:33N 38°44' W 010°07'1817.6
2016-Nov-28 20:33N 39°02' W 010°08'1817.7
2016-Nov-28 19:33N 39°20' W 010°07'67017.5
2016-Nov-27 05:16N 50°07' W 006°02'1317.9
2016-Nov-27 04:33N 50°19' W 006°01'  

Dump ship's entire track history